Time;durP1;ratioP1;P1;durP2;ratioP2;P2;SDS_P1;SDS_P2;PMS_P1;PMS_P2;Temp;Humidity;BMP_temperature;BMP_pressure;BME280_temperature;BME280_humidity;BME280_pressure;Samples;Min_cycle;Max_cycle;Signal;HPM_P1;HPM_P2
2022/08/31 00:08:16;;;;;;;5.28;3.55;;;23.10;99.70;;;;;;10013818;28;20049;-62
2022/08/31 00:13:07;;;;;;;5.40;3.50;;;23.10;99.70;;;;;;10012825;28;20040;-66
2022/08/31 00:17:58;;;;;;;5.18;3.33;;;23.10;99.90;;;;;;10013653;28;20442;-61
2022/08/31 00:22:48;;;;;;;3.28;2.40;;;23.10;99.90;;;;;;10012942;28;20034;-64
2022/08/31 00:27:39;;;;;;;5.25;3.10;;;23.10;99.90;;;;;;10008987;28;20053;-61
2022/08/31 00:32:30;;;;;;;5.20;3.92;;;23.00;99.90;;;;;;10012628;28;20022;-60
2022/08/31 00:37:21;;;;;;;4.85;3.15;;;22.90;99.90;;;;;;10012780;28;20419;-60
2022/08/31 00:42:12;;;;;;;4.80;3.17;;;23.00;99.90;;;;;;10004593;28;20129;-60
2022/08/31 00:47:03;;;;;;;7.47;3.38;;;22.80;99.90;;;;;;10013129;28;20030;-61
2022/08/31 00:52:10;;;;;;;7.55;3.95;;;23.00;99.90;;;;;;10016522;28;20119;-61
2022/08/31 00:57:03;;;;;;;4.35;3.05;;;23.00;99.90;;;;;;10014295;28;20037;-60
2022/08/31 01:01:53;;;;;;;4.15;3.45;;;22.90;99.90;;;;;;10012089;28;20026;-65
2022/08/31 01:06:45;;;;;;;4.78;3.28;;;22.90;99.90;;;;;;10012901;28;20484;-63
2022/08/31 01:11:38;;;;;;;5.30;3.45;;;22.90;99.90;;;;;;10012133;28;20052;-61
2022/08/31 01:16:35;;;;;;;5.72;4.07;;;22.80;99.90;;;;;;10012712;28;20026;-61
2022/08/31 01:21:28;;;;;;;5.00;3.25;;;22.70;99.90;;;;;;10018531;28;20025;-63
2022/08/31 01:26:23;;;;;;;6.63;4.03;;;22.60;99.90;;;;;;10016715;28;20042;-62
2022/08/31 01:31:15;;;;;;;5.80;3.60;;;22.60;99.90;;;;;;10014346;28;20026;-65
2022/08/31 01:36:08;;;;;;;9.05;3.47;;;22.70;99.90;;;;;;10018406;28;20038;-62
2022/08/31 01:41:01;;;;;;;5.82;3.67;;;22.60;99.90;;;;;;9999603;28;20040;-60
2022/08/31 01:45:52;;;;;;;7.20;3.33;;;22.60;99.90;;;;;;10018520;28;20716;-60
2022/08/31 01:50:43;;;;;;;7.18;4.28;;;22.60;99.90;;;;;;10017493;28;20053;-59
2022/08/31 01:55:34;;;;;;;5.20;3.33;;;22.60;99.90;;;;;;10016631;28;20037;-61
2022/08/31 02:00:27;;;;;;;4.18;3.55;;;22.60;99.90;;;;;;10017793;28;20018;-61
2022/08/31 02:05:18;;;;;;;11.52;3.78;;;22.50;99.90;;;;;;10016235;28;20448;-62
2022/08/31 02:10:09;;;;;;;4.57;3.13;;;22.40;99.90;;;;;;10018039;28;20120;-60
2022/08/31 02:15:04;;;;;;;7.97;3.28;;;22.30;99.90;;;;;;10016656;28;20050;-61
2022/08/31 02:19:55;;;;;;;3.58;3.20;;;22.30;99.90;;;;;;10012428;28;20033;-61
2022/08/31 02:24:45;;;;;;;5.85;3.53;;;22.30;99.90;;;;;;10016236;28;20030;-64
2022/08/31 02:29:36;;;;;;;6.47;3.95;;;22.30;99.90;;;;;;10016181;28;20105;-65
2022/08/31 02:34:28;;;;;;;3.72;3.10;;;22.20;99.90;;;;;;10014817;28;20055;-61
2022/08/31 02:39:18;;;;;;;6.10;3.85;;;22.10;99.90;;;;;;10016268;28;20187;-65
2022/08/31 02:44:09;;;;;;;5.63;3.35;;;22.10;99.90;;;;;;10015770;28;20029;-66
2022/08/31 02:49:01;;;;;;;5.75;2.92;;;22.20;99.90;;;;;;10009897;28;20048;-63
2022/08/31 02:53:52;;;;;;;5.00;2.47;;;22.10;99.90;;;;;;10015531;28;20048;-61
2022/08/31 02:58:42;;;;;;;3.38;2.45;;;22.00;99.90;;;;;;9998043;28;20022;-60
2022/08/31 03:03:33;;;;;;;2.95;2.40;;;22.00;99.90;;;;;;10013271;28;20049;-60
2022/08/31 03:08:24;;;;;;;3.17;2.70;;;21.80;99.90;;;;;;10004671;28;20435;-59
2022/08/31 03:13:15;;;;;;;3.40;2.20;;;21.80;99.90;;;;;;10008330;28;20022;-60
2022/08/31 03:18:06;;;;;;;2.60;2.15;;;21.80;99.90;;;;;;10006952;28;20539;-61
2022/08/31 03:22:56;;;;;;;3.08;2.20;;;21.70;99.90;;;;;;10013723;28;20041;-60
2022/08/31 03:27:47;;;;;;;3.40;2.08;;;21.60;99.90;;;;;;10013566;28;20056;-66
2022/08/31 03:32:38;;;;;;;3.10;1.83;;;21.60;99.90;;;;;;10010137;28;20440;-61
2022/08/31 03:37:29;;;;;;;3.95;2.28;;;21.80;99.90;;;;;;9996540;28;20029;-61
2022/08/31 03:42:19;;;;;;;3.40;2.15;;;21.90;99.90;;;;;;10005470;28;20066;-61
2022/08/31 03:47:10;;;;;;;2.97;2.10;;;21.90;99.90;;;;;;10002850;28;20041;-63
2022/08/31 03:52:01;;;;;;;3.00;2.28;;;21.90;99.90;;;;;;9997337;28;20200;-61
2022/08/31 03:56:52;;;;;;;2.58;2.13;;;22.00;99.90;;;;;;10014062;28;20037;-60
2022/08/31 04:01:42;;;;;;;3.97;2.05;;;21.90;99.90;;;;;;10010955;28;20485;-60
2022/08/31 04:06:33;;;;;;;4.55;2.95;;;21.90;99.90;;;;;;10013904;28;20612;-62
2022/08/31 04:11:26;;;;;;;4.40;2.42;;;21.80;99.90;;;;;;10011254;28;20030;-62
2022/08/31 04:16:19;;;;;;;3.22;2.42;;;21.80;99.90;;;;;;10008202;28;20026;-60
2022/08/31 04:21:15;;;;;;;3.28;2.33;;;21.80;99.90;;;;;;10013828;28;20049;-62
2022/08/31 04:26:13;;;;;;;3.85;2.75;;;21.80;99.90;;;;;;10014068;28;20480;-60
2022/08/31 04:31:07;;;;;;;5.90;2.63;;;21.70;99.90;;;;;;9995857;28;20407;-60
2022/08/31 04:35:58;;;;;;;3.35;2.47;;;21.70;99.90;;;;;;10014536;28;20022;-62
2022/08/31 04:40:48;;;;;;;3.45;2.88;;;21.40;99.90;;;;;;10002910;28;20030;-60
2022/08/31 04:45:41;;;;;;;3.22;2.33;;;21.30;99.90;;;;;;10013035;28;20026;-63
2022/08/31 04:50:32;;;;;;;5.68;2.92;;;21.40;99.90;;;;;;10019306;28;20309;-62
2022/08/31 04:55:22;;;;;;;3.45;2.50;;;21.70;99.90;;;;;;10012666;28;20038;-60
2022/08/31 05:00:13;;;;;;;4.32;2.92;;;21.70;99.90;;;;;;10019668;28;20033;-61
2022/08/31 05:05:05;;;;;;;5.35;2.60;;;21.70;99.90;;;;;;10018552;28;20037;-60
2022/08/31 05:09:55;;;;;;;4.03;2.13;;;21.60;99.90;;;;;;9991482;28;20024;-60
2022/08/31 05:14:46;;;;;;;2.58;2.05;;;21.60;99.90;;;;;;10019502;28;20034;-60
2022/08/31 05:19:38;;;;;;;3.40;2.42;;;21.60;99.90;;;;;;10021400;28;20033;-62
2022/08/31 05:24:34;;;;;;;3.92;2.88;;;21.60;99.90;;;;;;9999722;28;20065;-59
2022/08/31 05:29:25;;;;;;;2.97;2.47;;;21.50;99.90;;;;;;10019684;28;20037;-61
2022/08/31 05:34:16;;;;;;;3.60;2.47;;;21.40;99.90;;;;;;10019488;28;20044;-62
2022/08/31 05:39:10;;;;;;;5.10;2.60;;;21.50;99.90;;;;;;9995032;28;20026;-61
2022/08/31 05:44:02;;;;;;;2.88;2.40;;;21.40;99.90;;;;;;10018382;28;20105;-61
2022/08/31 05:48:53;;;;;;;3.05;2.10;;;21.60;99.90;;;;;;10021445;28;20071;-61
2022/08/31 05:53:44;;;;;;;2.38;1.75;;;21.70;99.90;;;;;;10019247;28;20041;-61
2022/08/31 05:58:36;;;;;;;3.50;1.92;;;21.70;99.90;;;;;;10018026;28;20507;-61
2022/08/31 06:03:28;;;;;;;4.13;1.85;;;21.80;99.90;;;;;;10016496;28;20026;-60
2022/08/31 06:08:19;;;;;;;4.43;2.08;;;22.00;99.90;;;;;;10010918;28;20034;-60
2022/08/31 06:13:13;;;;;;;2.30;1.67;;;22.10;99.90;;;;;;10014943;28;20500;-62
2022/08/31 06:18:04;;;;;;;3.08;2.00;;;22.10;99.90;;;;;;10012836;28;20026;-61
2022/08/31 06:22:55;;;;;;;3.70;2.03;;;22.00;99.90;;;;;;10012445;28;20112;-61
2022/08/31 06:27:49;;;;;;;3.30;2.00;;;21.90;99.90;;;;;;10016200;28;20121;-60
2022/08/31 06:32:39;;;;;;;2.40;1.73;;;21.90;99.90;;;;;;10008612;28;20393;-60
2022/08/31 06:37:30;;;;;;;2.45;2.17;;;22.00;99.90;;;;;;10014754;28;20033;-61
2022/08/31 06:42:20;;;;;;;2.08;1.73;;;22.00;99.90;;;;;;10015534;28;20030;-60
2022/08/31 06:47:11;;;;;;;3.33;1.67;;;22.10;99.90;;;;;;10012976;28;20477;-62
2022/08/31 06:52:02;;;;;;;1.98;1.40;;;22.10;99.90;;;;;;10020611;28;20118;-65
2022/08/31 06:56:55;;;;;;;4.47;2.22;;;22.10;99.90;;;;;;10014868;28;20036;-62
2022/08/31 07:01:46;;;;;;;3.55;1.92;;;22.00;99.90;;;;;;10014605;28;20018;-62
2022/08/31 07:06:40;;;;;;;4.68;2.35;;;22.10;99.90;;;;;;10014469;28;20026;-60
2022/08/31 07:11:38;;;;;;;3.00;2.03;;;22.00;99.90;;;;;;10013105;28;20053;-61
2022/08/31 07:16:29;;;;;;;2.75;2.20;;;22.10;99.90;;;;;;10014399;28;20030;-61
2022/08/31 07:21:26;;;;;;;4.43;2.25;;;22.50;99.90;;;;;;10014428;28;20489;-61
2022/08/31 07:26:24;;;;;;;3.75;2.20;;;22.90;99.90;;;;;;10014895;28;20042;-61
2022/08/31 07:31:16;;;;;;;2.83;2.10;;;23.20;99.90;;;;;;10010645;28;20089;-62
2022/08/31 07:36:14;;;;;;;3.65;2.38;;;23.10;99.90;;;;;;9998030;28;20056;-61
2022/08/31 07:46:18;;;;;;;4.28;2.42;;;23.70;99.60;;;;;;10007014;28;20025;-61
2022/08/31 07:51:09;;;;;;;4.25;2.25;;;23.80;99.50;;;;;;9978769;28;20061;-62
2022/08/31 07:56:00;;;;;;;4.72;2.65;;;23.70;99.70;;;;;;9975106;28;20034;-61
2022/08/31 08:00:50;;;;;;;3.05;2.50;;;23.40;99.90;;;;;;9970623;28;20077;-67
2022/08/31 08:05:42;;;;;;;4.97;3.13;;;23.40;99.90;;;;;;9974754;28;20055;-62
2022/08/31 08:10:33;;;;;;;5.25;2.83;;;23.30;99.90;;;;;;9973370;28;20030;-62
2022/08/31 08:15:24;;;;;;;4.18;2.70;;;23.70;99.50;;;;;;9973768;28;20508;-63
2022/08/31 08:20:14;;;;;;;4.30;2.92;;;23.50;99.50;;;;;;9973844;28;20408;-62
2022/08/31 08:25:06;;;;;;;6.97;2.80;;;23.10;99.70;;;;;;9973427;28;20023;-62
2022/08/31 08:29:56;;;;;;;4.20;3.15;;;22.90;99.90;;;;;;9973407;28;20109;-65
2022/08/31 08:34:47;;;;;;;6.35;2.53;;;23.00;99.90;;;;;;9981816;28;20575;-63
2022/08/31 08:39:39;;;;;;;3.67;2.80;;;22.90;99.80;;;;;;9981239;28;20105;-62
2022/08/31 08:44:31;;;;;;;6.75;4.47;;;23.00;99.90;;;;;;9980041;28;20072;-63
2022/08/31 08:49:51;;;;;;;5.72;3.42;;;23.30;99.60;;;;;;10007537;28;20522;-61
2022/08/31 08:54:46;;;;;;;4.18;2.60;;;23.30;99.60;;;;;;10010957;28;20065;-61
2022/08/31 08:59:36;;;;;;;;;;;23.30;99.90;;;;;;10020108;28;20029;-61
2022/08/31 09:04:40;;;;;;;4.63;3.30;;;23.40;99.50;;;;;;10021154;28;20372;-63
2022/08/31 09:09:48;;;;;;;5.70;2.92;;;23.80;99.20;;;;;;10016791;28;20512;-63
2022/08/31 09:15:00;;;;;;;3.15;2.47;;;24.20;98.80;;;;;;10019353;28;20101;-60
2022/08/31 09:19:58;;;;;;;4.07;2.72;;;24.30;98.70;;;;;;10019515;28;20088;-61
2022/08/31 09:24:51;;;;;;;3.58;2.83;;;24.50;98.50;;;;;;10019428;28;20040;-60
2022/08/31 09:29:45;;;;;;;3.22;2.33;;;24.70;98.20;;;;;;10019115;28;20029;-67
2022/08/31 09:34:39;;;;;;;5.20;3.07;;;24.70;98.10;;;;;;10019038;28;20034;-68
2022/08/31 09:39:31;;;;;;;4.05;2.83;;;24.80;98.20;;;;;;10018332;28;20040;-61
2022/08/31 09:44:31;;;;;;;3.38;2.33;;;25.10;98.00;;;;;;10018891;28;20034;-64
2022/08/31 09:49:30;;;;;;;5.65;2.97;;;25.30;97.60;;;;;;10013316;28;20598;-61
2022/08/31 09:59:44;;;;;;;4.38;2.25;;;25.00;97.40;;;;;;10018889;28;20108;-69
2022/08/31 10:04:46;;;;;;;5.13;2.25;;;24.70;97.30;;;;;;10017737;28;20052;-63
2022/08/31 10:09:55;;;;;;;3.10;2.25;;;25.00;96.90;;;;;;9973910;28;20046;-61
2022/08/31 10:15:18;;;;;;;3.28;2.17;;;24.60;96.90;;;;;;10016701;28;20030;-62
2022/08/31 10:20:17;;;;;;;2.38;1.92;;;24.60;96.70;;;;;;10014897;28;20033;-63
2022/08/31 10:25:29;;;;;;;4.10;1.95;;;24.50;96.50;;;;;;10013277;28;20029;-63
2022/08/31 10:30:48;;;;;;;2.95;2.40;;;24.70;96.50;;;;;;10018248;28;20018;-61
2022/08/31 10:35:56;;;;;;;3.28;2.40;;;24.70;96.40;;;;;;10014184;28;20073;-60
2022/08/31 10:41:11;;;;;;;3.33;2.50;;;25.00;96.50;;;;;;10015579;28;20037;-60
2022/08/31 10:46:02;;;;;;;4.60;2.95;;;24.80;96.30;;;;;;10016368;28;20489;-60
2022/08/31 10:51:05;;;;;;;4.68;3.13;;;24.80;96.20;;;;;;10020204;28;20560;-60
2022/08/31 10:56:38;;;;;;;3.92;2.80;;;24.70;96.40;;;;;;10011821;28;20045;-61
2022/08/31 11:01:51;;;;;;;6.47;4.20;;;25.00;96.10;;;;;;9947362;28;20034;-60
2022/08/31 11:06:59;;;;;;;5.70;3.65;;;25.50;95.90;;;;;;10011771;28;20026;-62
2022/08/31 11:12:17;;;;;;;5.22;4.07;;;26.10;95.60;;;;;;10013950;28;20022;-66
2022/08/31 11:17:27;;;;;;;6.40;4.15;;;26.20;95.50;;;;;;10008975;28;20069;-61
2022/08/31 11:22:51;;;;;;;6.13;3.45;;;26.00;95.70;;;;;;10015118;28;20026;-63
2022/08/31 11:27:57;;;;;;;6.95;4.35;;;25.70;95.50;;;;;;10010235;28;20022;-60
2022/08/31 11:32:52;;;;;;;5.38;3.88;;;25.70;95.10;;;;;;10014067;28;20030;-63
2022/08/31 11:37:49;;;;;;;6.68;4.40;;;25.70;94.90;;;;;;10012040;28;20611;-60
2022/08/31 11:42:40;;;;;;;6.63;3.95;;;25.60;94.60;;;;;;10014079;28;20388;-60
2022/08/31 11:47:36;;;;;;;5.35;3.15;;;25.60;94.50;;;;;;10012557;28;20042;-62
2022/08/31 11:52:30;;;;;;;4.38;3.97;;;25.50;94.20;;;;;;10016097;28;20037;-61
2022/08/31 11:57:30;;;;;;;5.28;4.03;;;25.60;94.00;;;;;;9984880;28;20073;-64
2022/08/31 12:02:21;;;;;;;6.97;4.55;;;25.60;93.90;;;;;;10002499;28;20327;-61
2022/08/31 12:07:23;;;;;;;6.65;5.40;;;25.70;94.00;;;;;;10013170;28;20056;-60
2022/08/31 12:12:23;;;;;;;6.68;4.53;;;25.90;94.10;;;;;;10003470;28;20062;-63
2022/08/31 12:17:38;;;;;;;6.32;4.13;;;25.80;94.40;;;;;;10013624;28;20022;-61
2022/08/31 12:27:46;;;;;;;4.32;3.42;;;26.10;94.30;;;;;;10008241;28;20065;-62
2022/08/31 12:32:40;;;;;;;4.15;2.72;;;26.30;94.20;;;;;;10007438;28;20124;-63
2022/08/31 12:37:36;;;;;;;3.10;2.50;;;26.40;94.40;;;;;;9995435;28;20057;-60
2022/08/31 12:42:27;;;;;;;3.13;2.30;;;27.00;94.00;;;;;;10012290;28;20053;-61
2022/08/31 12:47:36;;;;;;;3.83;2.88;;;27.30;93.80;;;;;;10013298;28;20046;-63
2022/08/31 12:52:41;;;;;;;2.47;2.28;;;28.00;93.30;;;;;;10019121;28;20037;-61
2022/08/31 12:57:53;;;;;;;4.47;2.63;;;28.60;92.70;;;;;;10009078;28;20256;-62
2022/08/31 13:02:48;;;;;;;6.65;3.90;;;28.00;92.50;;;;;;10013073;28;20034;-62
2022/08/31 13:07:39;;;;;;;3.67;2.95;;;27.80;92.40;;;;;;10010847;28;20049;-65
2022/08/31 13:12:29;;;;;;;5.30;3.17;;;27.40;92.20;;;;;;9997696;28;20496;-62
2022/08/31 13:17:20;;;;;;;4.22;2.78;;;27.20;92.30;;;;;;10010273;28;20110;-61
2022/08/31 13:22:15;;;;;;;5.43;3.13;;;27.60;92.20;;;;;;10014989;28;20113;-62
2022/08/31 13:27:17;;;;;;;2.85;2.40;;;27.40;92.10;;;;;;10002838;28;20491;-60
2022/08/31 13:32:09;;;;;;;4.28;2.80;;;27.40;91.90;;;;;;10019210;28;20018;-63
2022/08/31 13:36:59;;;;;;;4.60;3.00;;;28.00;91.60;;;;;;10020228;28;20033;-63
2022/08/31 13:42:27;;;;;;;3.97;2.90;;;27.40;91.60;;;;;;10019455;28;20026;-61
2022/08/31 13:47:29;;;;;;;4.05;3.28;;;27.30;91.40;;;;;;10019897;28;20046;-65
2022/08/31 13:52:25;;;;;;;6.90;2.90;;;27.00;91.60;;;;;;10022654;28;20030;-65
2022/08/31 13:57:29;;;;;;;9.20;4.35;;;26.60;91.70;;;;;;10000820;28;20052;-61
2022/08/31 14:02:21;;;;;;;3.50;2.88;;;27.30;91.60;;;;;;9989669;28;20022;-63
2022/08/31 14:07:23;;;;;;;2.70;2.50;;;29.10;90.80;;;;;;10012882;28;20088;-61
2022/08/31 14:12:35;;;;;;;5.25;2.72;;;30.00;90.10;;;;;;10016627;28;20392;-62
2022/08/31 14:17:25;;;;;;;5.30;3.72;;;31.00;88.90;;;;;;10008584;28;20037;-61
2022/08/31 14:22:34;;;;;;;3.60;2.70;;;32.30;87.30;;;;;;10016729;28;20045;-63
2022/08/31 14:27:25;;;;;;;4.50;3.05;;;32.70;84.40;;;;;;10015522;28;20480;-64
2022/08/31 14:32:17;;;;;;;2.92;2.65;;;32.30;84.20;;;;;;10010661;28;20393;-64
2022/08/31 14:37:18;;;;;;;3.88;2.80;;;33.40;82.30;;;;;;9999417;28;20042;-64
2022/08/31 14:42:15;;;;;;;;;;;33.60;79.70;;;;;;9998843;28;20484;-67
2022/08/31 14:47:08;;;;;;;5.50;2.63;;;33.90;76.10;;;;;;10012337;28;20236;-63
2022/08/31 14:52:05;;;;;;;3.85;2.92;;;33.10;78.00;;;;;;10022441;28;20017;-61
2022/08/31 14:56:57;;;;;;;5.05;3.22;;;32.10;77.60;;;;;;10011853;28;20057;-68
2022/08/31 15:01:49;;;;;;;4.03;2.88;;;31.40;77.50;;;;;;10013414;28;20079;-67
2022/08/31 15:06:40;;;;;;;5.82;3.70;;;30.10;78.50;;;;;;10015706;28;20377;-63
2022/08/31 15:11:36;;;;;;;4.40;3.72;;;29.10;79.40;;;;;;10015983;28;20021;-67
2022/08/31 15:16:29;;;;;;;6.38;4.00;;;28.40;80.40;;;;;;9995750;28;20030;-71
2022/08/31 15:21:21;;;;;;;;;;;28.00;82.00;;;;;;10015652;28;20435;-63
2022/08/31 15:26:15;;;;;;;4.38;3.20;;;30.90;79.80;;;;;;10014887;28;19927;-64
2022/08/31 15:31:19;;;;;;;8.10;4.25;;;33.50;75.90;;;;;;10011430;28;20037;-67
2022/08/31 15:36:14;;;;;;;4.30;3.63;;;34.90;74.30;;;;;;10012358;28;20048;-70
2022/08/31 15:41:05;;;;;;;5.60;3.83;;;36.10;71.80;;;;;;10007749;28;20125;-65
2022/08/31 15:45:56;;;;;;;5.77;4.13;;;32.00;75.40;;;;;;9998531;28;20060;-61
2022/08/31 15:50:55;;;;;;;5.00;3.75;;;34.90;72.40;;;;;;10018595;28;20041;-61
2022/08/31 15:55:45;;;;;;;4.85;3.55;;;36.90;69.30;;;;;;9980810;28;20049;-61
2022/08/31 16:00:37;;;;;;;3.87;3.27;;;37.70;67.40;;;;;;9993668;28;20026;-68
2022/08/31 16:05:33;;;;;;;3.45;3.15;;;37.70;65.50;;;;;;10011953;28;20456;-65
2022/08/31 16:10:26;;;;;;;3.58;3.28;;;38.40;63.50;;;;;;9999880;28;20061;-63
2022/08/31 16:15:17;;;;;;;5.82;3.35;;;37.80;62.90;;;;;;9999139;28;20122;-67
2022/08/31 16:20:10;;;;;;;6.90;3.50;;;33.90;65.60;;;;;;9993636;28;20520;-66
2022/08/31 16:25:05;;;;;;;4.43;3.60;;;30.80;71.00;;;;;;10011055;28;20128;-65
2022/08/31 16:29:56;;;;;;;5.85;3.45;;;29.10;73.70;;;;;;9985904;28;20100;-63
2022/08/31 16:34:46;;;;;;;4.25;3.85;;;28.90;74.20;;;;;;10011310;28;20447;-62
2022/08/31 16:39:40;;;;;;;7.30;3.83;;;28.60;74.70;;;;;;9999946;28;20116;-68
2022/08/31 16:44:31;;;;;;;4.78;3.80;;;28.30;75.60;;;;;;10011896;28;20057;-60
2022/08/31 16:49:39;;;;;;;5.55;3.53;;;28.30;76.20;;;;;;9976388;28;1182470;-71
2022/08/31 16:54:32;;;;;;;7.65;3.90;;;29.90;74.90;;;;;;10017035;28;20041;-67
2022/08/31 16:59:28;;;;;;;6.27;4.00;;;30.70;73.70;;;;;;10021181;28;20045;-75
2022/08/31 17:04:20;;;;;;;4.55;3.53;;;32.20;71.70;;;;;;10003088;28;20032;-72
2022/08/31 17:09:24;;;;;;;4.75;3.67;;;33.10;70.40;;;;;;10021384;28;20034;-62
2022/08/31 17:14:18;;;;;;;3.90;3.05;;;32.70;70.40;;;;;;10020551;28;20069;-65
2022/08/31 17:19:12;;;;;;;4.25;3.55;;;32.00;71.40;;;;;;10017000;28;20022;-64
2022/08/31 17:24:03;;;;;;;;;;;29.30;75.30;;;;;;10020868;28;20496;-68
2022/08/31 17:29:00;;;;;;;5.13;3.35;;;27.50;79.10;;;;;;10019594;28;20389;-62
2022/08/31 17:33:51;;;;;;;5.40;4.03;;;26.70;80.80;;;;;;10019121;28;20088;-60
2022/08/31 17:38:41;;;;;;;6.30;4.20;;;26.20;82.30;;;;;;10018708;28;20018;-66
2022/08/31 17:43:34;;;;;;;4.88;3.60;;;26.00;83.30;;;;;;10019208;28;20488;-64
2022/08/31 17:48:25;;;;;;;6.97;3.53;;;26.10;83.40;;;;;;10014290;28;20486;-62
2022/08/31 17:53:15;;;;;;;5.63;3.20;;;26.20;83.50;;;;;;10023702;28;20070;-68
2022/08/31 17:58:07;;;;;;;7.10;3.95;;;26.10;84.10;;;;;;10017457;28;20293;-64
2022/08/31 18:02:57;;;;;;;5.38;4.28;;;25.80;85.40;;;;;;10011461;28;20060;-63
2022/08/31 18:07:49;;;;;;;6.25;4.15;;;25.50;86.40;;;;;;10017723;28;20018;-63
2022/08/31 18:12:40;;;;;;;7.28;4.40;;;25.20;88.40;;;;;;10016665;28;20041;-60
2022/08/31 18:17:31;;;;;;;5.00;3.75;;;24.80;90.10;;;;;;10014696;28;20044;-61
2022/08/31 18:22:22;;;;;;;4.22;3.53;;;25.10;90.00;;;;;;10016799;28;20044;-62
2022/08/31 18:27:16;;;;;;;4.97;4.20;;;24.90;90.20;;;;;;9998909;28;20038;-70
2022/08/31 18:32:07;;;;;;;5.22;4.07;;;24.70;90.90;;;;;;10015997;28;20319;-67
2022/08/31 18:36:58;;;;;;;6.57;3.83;;;24.50;91.50;;;;;;10017163;28;20034;-72
2022/08/31 18:47:04;;;;;;;6.90;4.80;;;24.30;92.30;;;;;;10007501;28;20116;-61
2022/08/31 18:52:00;;;;;;;8.07;4.38;;;24.20;92.70;;;;;;10000736;28;20063;-64
2022/08/31 18:56:51;;;;;;;7.05;4.55;;;24.20;92.90;;;;;;9999911;28;20033;-62
2022/08/31 19:01:42;;;;;;;6.32;4.05;;;24.10;93.30;;;;;;10014713;28;20499;-62
2022/08/31 19:06:34;;;;;;;5.30;4.28;;;24.00;93.60;;;;;;10016421;28;20025;-62
2022/08/31 19:11:25;;;;;;;4.82;4.28;;;23.90;94.00;;;;;;10007247;28;20026;-62
2022/08/31 19:16:22;;;;;;;8.63;4.70;;;24.00;94.10;;;;;;10012027;28;20449;-61
2022/08/31 19:21:18;;;;;;;7.88;4.43;;;24.10;94.10;;;;;;10008472;28;20400;-65
2022/08/31 19:26:09;;;;;;;8.18;5.22;;;24.10;94.20;;;;;;10006770;28;20042;-61
2022/08/31 19:31:00;;;;;;;6.00;4.80;;;23.90;94.30;;;;;;10016267;28;20026;-62
2022/08/31 19:36:00;;;;;;;10.95;5.70;;;23.80;94.70;;;;;;10014701;28;20038;-64
2022/08/31 19:40:51;;;;;;;6.32;5.03;;;23.90;94.80;;;;;;10011791;28;20036;-62
2022/08/31 19:45:41;;;;;;;11.38;6.10;;;23.70;95.30;;;;;;10014589;28;20032;-61
2022/08/31 19:50:36;;;;;;;7.15;5.38;;;23.80;95.30;;;;;;9978957;28;20196;-64
2022/08/31 19:55:27;;;;;;;6.65;5.53;;;23.60;95.80;;;;;;9975872;28;20045;-66
2022/08/31 20:00:18;;;;;;;8.57;6.30;;;23.60;96.00;;;;;;9974525;28;20041;-63
2022/08/31 20:05:09;;;;;;;8.07;6.22;;;23.70;95.90;;;;;;9973106;28;20474;-63
2022/08/31 20:10:00;;;;;;;8.05;5.90;;;23.80;96.00;;;;;;9953616;28;20125;-69
2022/08/31 20:14:51;;;;;;;10.85;6.05;;;23.80;96.00;;;;;;9966355;28;20034;-61
2022/08/31 20:19:41;;;;;;;9.52;5.90;;;23.70;96.10;;;;;;9973695;28;20026;-66
2022/08/31 20:24:37;;;;;;;10.20;6.88;;;23.80;96.20;;;;;;9977010;28;20185;-64
2022/08/31 20:29:29;;;;;;;9.43;5.22;;;23.70;96.20;;;;;;9975110;28;20560;-65
2022/08/31 20:34:21;;;;;;;11.20;7.07;;;23.60;96.40;;;;;;9976057;28;20044;-63
2022/08/31 20:39:14;;;;;;;10.30;5.82;;;23.60;96.60;;;;;;9974740;28;20037;-62
2022/08/31 20:44:11;;;;;;;7.72;5.50;;;23.60;96.50;;;;;;9975438;28;20026;-62
2022/08/31 20:54:11;;;;;;;8.32;5.72;;;23.60;96.80;;;;;;10012203;28;20044;-61
2022/08/31 20:59:08;;;;;;;11.02;6.43;;;23.70;96.70;;;;;;10012888;28;20491;-61
2022/08/31 21:03:59;;;;;;;14.27;6.05;;;23.80;96.80;;;;;;10004348;28;20073;-62
2022/08/31 21:08:51;;;;;;;7.13;5.93;;;23.60;97.10;;;;;;10005639;28;20107;-61
2022/08/31 21:13:43;;;;;;;12.45;6.53;;;23.70;96.80;;;;;;10012266;28;20451;-62
2022/08/31 21:18:34;;;;;;;15.07;6.38;;;23.60;96.80;;;;;;10011809;28;20025;-61
2022/08/31 21:23:24;;;;;;;6.93;5.30;;;23.60;96.90;;;;;;10011969;28;20514;-62
2022/08/31 21:28:16;;;;;;;13.68;6.28;;;23.40;97.00;;;;;;10011586;28;20531;-60
2022/08/31 21:33:06;;;;;;;8.18;5.93;;;23.40;97.10;;;;;;10004047;28;20125;-61
2022/08/31 21:38:01;;;;;;;9.82;5.35;;;23.30;97.20;;;;;;10018563;28;20113;-60
2022/08/31 21:42:51;;;;;;;12.60;6.53;;;23.30;97.30;;;;;;10018492;28;20427;-63
2022/08/31 21:47:42;;;;;;;11.13;6.85;;;23.10;97.50;;;;;;10016509;28;20067;-62
2022/08/31 21:52:33;;;;;;;9.77;6.90;;;23.10;97.60;;;;;;10023372;28;20030;-61
2022/08/31 21:57:24;;;;;;;7.82;6.55;;;23.00;97.70;;;;;;10017159;28;20069;-60
2022/08/31 22:02:15;;;;;;;12.73;7.15;;;22.90;98.00;;;;;;10017060;28;20034;-62
2022/08/31 22:07:06;;;;;;;12.80;7.78;;;22.90;98.10;;;;;;9999939;28;20045;-61
2022/08/31 22:11:58;;;;;;;9.07;7.63;;;22.90;98.20;;;;;;10016748;28;20097;-61
2022/08/31 22:16:50;;;;;;;13.25;8.98;;;22.40;98.50;;;;;;10015621;28;20033;-62
2022/08/31 22:21:45;;;;;;;13.32;8.50;;;22.30;98.80;;;;;;10017173;28;20018;-64
2022/08/31 22:26:42;;;;;;;14.25;8.43;;;22.30;99.00;;;;;;10016487;28;20404;-63
2022/08/31 22:31:35;;;;;;;13.20;7.25;;;22.40;99.00;;;;;;10014092;28;20113;-61
2022/08/31 22:36:30;;;;;;;12.40;7.25;;;22.30;99.00;;;;;;10017219;28;20041;-61
2022/08/31 22:41:20;;;;;;;12.57;7.60;;;22.20;99.30;;;;;;10016726;28;20057;-61
2022/08/31 22:46:14;;;;;;;12.73;8.18;;;22.20;99.50;;;;;;10008563;28;20030;-62
2022/08/31 22:51:09;;;;;;;8.75;6.60;;;22.00;99.70;;;;;;10018982;28;20512;-60
2022/08/31 22:56:01;;;;;;;10.25;6.50;;;22.10;99.70;;;;;;10015774;28;20038;-62
2022/08/31 23:00:52;;;;;;;9.88;7.43;;;22.00;99.90;;;;;;10011594;28;20022;-61
2022/08/31 23:05:43;;;;;;;11.80;6.88;;;22.00;99.90;;;;;;10014549;28;20030;-62
2022/08/31 23:10:34;;;;;;;10.80;7.28;;;22.00;99.90;;;;;;10013590;28;20018;-60
2022/08/31 23:15:25;;;;;;;11.32;7.40;;;21.80;99.90;;;;;;10015647;28;20041;-63
2022/08/31 23:20:22;;;;;;;10.70;8.13;;;21.80;99.90;;;;;;10015199;28;20079;-62
2022/08/31 23:25:16;;;;;;;9.63;7.50;;;21.80;99.90;;;;;;9996792;28;20036;-68
2022/08/31 23:30:08;;;;;;;12.00;8.45;;;21.80;99.90;;;;;;10014784;28;20029;-62
2022/08/31 23:34:59;;;;;;;13.18;9.20;;;21.70;99.90;;;;;;10014015;28;20269;-68
2022/08/31 23:39:51;;;;;;;10.32;6.90;;;21.60;99.90;;;;;;10003821;28;20675;-66
2022/08/31 23:44:45;;;;;;;13.70;8.55;;;21.60;99.90;;;;;;9996149;28;20125;-67
2022/08/31 23:49:37;;;;;;;14.30;8.35;;;21.50;99.90;;;;;;9991643;28;20042;-65
2022/08/31 23:54:28;;;;;;;12.60;7.68;;;21.60;99.90;;;;;;10014939;28;20073;-61
2022/08/31 23:59:19;;;;;;;13.68;8.75;;;21.50;99.90;;;;;;10013023;28;20030;-62
